This is the latest recevied weather packets stored in our database for station/object R2BLN-13. If no packets are shown the sender has not sent any weather packets the latest 10 day(s).
| Time | Temp. | Humidity | Pressure | Rain* | Wind** | Luminosity | Snow |
|---|---|---|---|---|---|---|---|
| 1787986315 | 29.44° C | 39% | 1001.6 hPa | - | - | - | - |
| 1787985715 | 32.78° C | 33% | 1001.6 hPa | - | - | - | - |
| 1787985115 | 34.44° C | 31% | 1001.7 hPa | - | - | - | - |
| 1787984515 | 31.11° C | 39% | 1001.8 hPa | - | - | - | - |
| 1787983915 | 27.22° C | 50% | 1001.8 hPa | - | - | - | - |
| 1787983315 | 24.44° C | 58% | 1001.8 hPa | - | - | - | - |
| 1787982715 | 21.67° C | 62% | 1002 hPa | - | - | - | - |
| 1787982115 | 20.56° C | 64% | 1002.1 hPa | - | - | - | - |
| 1787981515 | 20° C | 65% | 1002.1 hPa | - | - | - | - |
| 1787980909 | 19.44° C | 67% | 1002.1 hPa | - | - | - | - |
| 1787980285 | 18.89° C | 69% | 1002.2 hPa | - | - | - | - |
| 1787979685 | 18.33° C | 70% | 1002.2 hPa | - | - | - | - |
| 1787979085 | 17.78° C | 71% | 1002.4 hPa | - | - | - | - |
| 1787978485 | 17.22° C | 71% | 1002.4 hPa | - | - | - | - |
| 1787977885 | 16.67° C | 72% | 1002.5 hPa | - | - | - | - |
| 1787977285 | 16.11° C | 73% | 1002.4 hPa | - | - | - | - |
| 1787976685 | 16.11° C | 74% | 1002.4 hPa | - | - | - | - |
| 1787976085 | 15.56° C | 74% | 1002.4 hPa | - | - | - | - |
| 1787975485 | 15° C | 74% | 1002.4 hPa | - | - | - | - |
| 1787974885 | 14.44° C | 74% | 1002.3 hPa | - | - | - | - |
| 1787974285 | 13.89° C | 75% | 1002.3 hPa | - | - | - | - |
| 1787973685 | 13.89° C | 74% | 1002.3 hPa | - | - | - | - |
| 1787973085 | 13.89° C | 74% | 1002.3 hPa | - | - | - | - |
| 1787972485 | 13.89° C | 74% | 1002.3 hPa | - | - | - | - |
| 1787971869 | 13.89° C | 74% | 1002.3 hPa | - | - | - | - |
* Rain since midnight (hover to see other rain measurements)
** Current wind speed in m/s (hover to see current wind gust speed)